Time;durP1;ratioP1;P1;durP2;ratioP2;P2;SDS_P1;SDS_P2;PMS_P1;PMS_P2;Temp;Humidity;BMP_temperature;BMP_pressure;BME280_temperature;BME280_humidity;BME280_pressure;Samples;Min_cycle;Max_cycle;Signal;HPM_P1;HPM_P2
2023/03/03 00:01:55;;;;;;;47.33;21.98;;;;;;;-0.03;95.02;102312.09;5048397;28;20911;-71
2023/03/03 00:04:22;;;;;;;55.40;28.08;;;;;;;0.02;95.02;102316.56;5030412;28;20052;-71
2023/03/03 00:06:49;;;;;;;52.70;26.52;;;;;;;0.05;94.82;102321.88;5047217;28;20033;-70
2023/03/03 00:09:16;;;;;;;53.03;27.25;;;;;;;-0.01;94.84;102320.81;5044560;28;20040;-71
2023/03/03 00:11:45;;;;;;;54.03;27.20;;;;;;;-0.02;95.02;102331.16;5065550;28;20122;-71
2023/03/03 00:14:28;;;;;;;53.90;26.73;;;;;;;0.04;94.60;102328.78;5081796;28;20052;-70
2023/03/03 00:16:59;;;;;;;56.50;27.48;;;;;;;0.01;94.68;102320.88;5060087;28;20033;-70
2023/03/03 00:19:26;;;;;;;51.55;23.42;;;;;;;0.01;94.56;102330.38;5056955;28;20049;-70
2023/03/03 00:21:57;;;;;;;49.95;27.73;;;;;;;0.06;94.43;102337.50;5052389;28;20525;-71
2023/03/03 00:24:37;;;;;;;49.30;26.90;;;;;;;0.06;94.16;102331.41;5062211;28;20044;-70
2023/03/03 00:27:34;;;;;;;48.40;21.75;;;;;;;0.05;94.11;102329.66;5047508;28;20079;-71
2023/03/03 00:30:15;;;;;;;42.30;19.98;;;;;;;0.01;93.95;102328.66;5069721;28;20068;-70
2023/03/03 00:32:51;;;;;;;49.40;26.08;;;;;;;-0.02;93.98;102328.56;5045547;28;20049;-70
2023/03/03 00:35:26;;;;;;;53.00;27.48;;;;;;;-0.06;93.93;102335.34;5051942;28;20153;-70
2023/03/03 00:37:58;;;;;;;54.17;26.55;;;;;;;-0.06;93.91;102334.44;5057458;28;20046;-70
2023/03/03 00:40:38;;;;;;;50.72;26.73;;;;;;;-0.11;93.88;102343.75;5055572;28;20056;-70
2023/03/03 00:43:24;;;;;;;52.03;26.63;;;;;;;-0.12;94.20;102340.28;5049069;28;20071;-70
2023/03/03 00:45:55;;;;;;;53.20;27.92;;;;;;;-0.16;94.66;102341.00;5047648;28;20056;-70
2023/03/03 00:48:24;;;;;;;58.20;24.85;;;;;;;-0.17;94.60;102334.03;5070106;28;20044;-70
2023/03/03 00:50:57;;;;;;;48.40;21.02;;;;;;;-0.10;94.64;102348.13;5057797;28;20084;-70
2023/03/03 00:53:29;;;;;;;50.17;26.80;;;;;;;-0.07;94.56;102348.22;5049212;28;20072;-71
2023/03/03 00:55:57;;;;;;;48.15;21.65;;;;;;;-0.07;94.23;102341.34;5046891;28;20505;-71
2023/03/03 00:58:26;;;;;;;41.35;19.63;;;;;;;-0.07;94.31;102335.25;5070483;28;20042;-70
2023/03/03 01:00:55;;;;;;;43.03;20.45;;;;;;;-0.10;94.01;102342.94;5052830;28;20041;-70
2023/03/03 01:03:28;;;;;;;44.42;21.25;;;;;;;-0.10;94.02;102340.34;5059705;28;20069;-71
2023/03/03 01:05:55;;;;;;;49.00;26.92;;;;;;;-0.11;93.96;102342.03;5044644;28;20045;-71
2023/03/03 01:08:24;;;;;;;45.70;21.50;;;;;;;-0.10;93.66;102345.53;5059420;28;20614;-70
2023/03/03 01:10:57;;;;;;;41.25;20.05;;;;;;;-0.10;93.52;102346.41;5065526;28;20038;-71
2023/03/03 01:13:31;;;;;;;43.50;24.08;;;;;;;-0.10;93.51;102353.31;5062303;28;20056;-71
2023/03/03 01:16:01;;;;;;;48.55;26.65;;;;;;;-0.09;93.41;102357.66;5062219;28;21489;-71
2023/03/03 01:18:28;;;;;;;48.20;27.20;;;;;;;-0.10;93.32;102364.56;5058464;28;20061;-71
2023/03/03 01:20:56;;;;;;;48.67;26.05;;;;;;;-0.13;93.37;102364.44;5062470;28;20092;-71
2023/03/03 01:23:23;;;;;;;42.20;19.35;;;;;;;-0.17;93.92;102365.16;5059415;28;20149;-70
2023/03/03 01:25:50;;;;;;;44.45;20.27;;;;;;;-0.14;93.75;102364.38;5061970;28;20144;-70
2023/03/03 01:28:19;;;;;;;45.70;20.90;;;;;;;-0.17;93.94;102353.06;5087813;28;20085;-70
2023/03/03 01:30:46;;;;;;;41.70;19.65;;;;;;;-0.11;93.89;102359.31;5064818;28;20033;-70
2023/03/03 01:33:13;;;;;;;46.80;21.45;;;;;;;-0.09;93.77;102360.25;5050945;28;20042;-71
2023/03/03 01:35:46;;;;;;;38.05;18.70;;;;;;;-0.06;93.52;102360.38;5058500;28;20115;-70
2023/03/03 01:38:14;;;;;;;43.50;21.10;;;;;;;-0.12;93.66;102357.56;5050129;28;20038;-71
2023/03/03 01:40:41;;;;;;;44.55;21.23;;;;;;;-0.16;93.63;102357.44;5063265;28;20040;-70
2023/03/03 01:43:14;;;;;;;50.92;27.45;;;;;;;-0.17;93.83;102360.84;5049592;28;20037;-69
2023/03/03 01:46:01;;;;;;;52.45;27.02;;;;;;;-0.21;93.92;102352.88;5064609;28;20067;-70
2023/03/03 01:48:43;;;;;;;49.63;22.38;;;;;;;-0.23;93.94;102355.44;5052689;28;20041;-70
2023/03/03 01:51:18;;;;;;;50.53;22.33;;;;;;;-0.20;94.07;102354.66;5064535;28;20559;-70
2023/03/03 01:53:52;;;;;;;49.90;27.50;;;;;;;-0.21;94.06;102352.88;5051331;28;20050;-71
2023/03/03 01:56:19;;;;;;;44.70;20.90;;;;;;;-0.24;93.95;102356.25;5048269;28;20052;-70
2023/03/03 01:59:17;;;;;;;52.15;26.63;;;;;;;-0.23;94.19;102350.25;5064164;28;20045;-70
2023/03/03 02:01:47;;;;;;;38.13;18.85;;;;;;;-0.17;94.17;102352.19;5061723;28;20048;-70
2023/03/03 02:04:16;;;;;;;44.63;20.45;;;;;;;-0.16;93.98;102359.16;5059961;28;20096;-70
2023/03/03 02:06:52;;;;;;;52.00;27.25;;;;;;;-0.21;93.82;102347.69;5055031;28;20037;-70
2023/03/03 02:09:37;;;;;;;52.42;27.13;;;;;;;-0.25;94.26;102354.47;5054532;28;20045;-70
2023/03/03 02:12:07;;;;;;;;;;;;;;;-0.23;94.29;102355.44;5063009;28;20085;-70
2023/03/03 02:14:34;;;;;;;47.90;20.98;;;;;;;-0.21;94.39;102360.66;5053051;28;19928;-72
2023/03/03 02:17:01;;;;;;;47.60;20.85;;;;;;;-0.13;94.12;102359.25;5078262;28;20043;-73
2023/03/03 02:20:02;;;;;;;46.65;21.63;;;;;;;-0.16;94.16;102356.56;5048974;28;20038;-71
2023/03/03 02:22:43;;;;;;;50.83;27.10;;;;;;;-0.17;94.21;102365.16;5054305;28;20080;-71
2023/03/03 02:25:23;;;;;;;50.63;22.95;;;;;;;-0.16;94.24;102367.78;5057712;28;20037;-71
2023/03/03 02:27:51;;;;;;;45.63;21.88;;;;;;;-0.12;94.28;102360.16;5060030;28;20046;-71
2023/03/03 02:30:22;;;;;;;45.17;22.60;;;;;;;-0.11;94.28;102359.31;5070112;28;20045;-71
2023/03/03 02:32:50;;;;;;;48.25;27.88;;;;;;;-0.06;94.11;102357.78;5052218;28;20042;-70
2023/03/03 02:35:38;;;;;;;49.53;27.40;;;;;;;-0.11;94.01;102357.59;5064392;28;20060;-71
2023/03/03 02:38:18;;;;;;;43.08;20.92;;;;;;;-0.06;93.94;102365.56;5060480;28;20498;-71
2023/03/03 02:41:22;;;;;;;48.38;28.00;;;;;;;-0.05;93.94;102364.72;5048462;28;20034;-71
2023/03/03 02:44:03;;;;;;;44.28;20.92;;;;;;;-0.05;93.92;102364.72;5079600;28;20544;-70
2023/03/03 02:46:39;;;;;;;48.35;28.02;;;;;;;-0.01;93.77;102366.63;5054979;28;20121;-70
2023/03/03 02:49:08;;;;;;;47.03;27.65;;;;;;;-0.06;93.77;102356.09;5051129;28;20046;-70
2023/03/03 02:51:37;;;;;;;50.00;28.17;;;;;;;-0.06;93.72;102357.78;5083446;28;20087;-70
2023/03/03 02:54:05;;;;;;;48.20;27.45;;;;;;;0.00;93.76;102355.44;5048726;28;20045;-71
2023/03/03 02:56:34;;;;;;;41.95;21.30;;;;;;;-0.01;93.53;102358.84;5074267;28;20046;-72
2023/03/03 02:59:02;;;;;;;47.85;27.67;;;;;;;-0.06;93.58;102356.09;5070273;28;20041;-71
2023/03/03 03:01:35;;;;;;;46.75;22.13;;;;;;;-0.01;93.67;102357.13;5062438;28;20056;-72
2023/03/03 03:04:16;;;;;;;42.65;26.27;;;;;;;0.01;93.60;102359.75;5053729;28;20041;-71
2023/03/03 03:06:47;;;;;;;40.90;19.73;;;;;;;0.03;93.37;102352.94;5060985;28;20047;-71
2023/03/03 03:09:18;;;;;;;43.05;20.95;;;;;;;0.06;93.57;102363.44;5062286;28;20050;-71
2023/03/03 03:11:47;;;;;;;42.22;21.42;;;;;;;0.04;93.52;102361.63;5049533;28;20038;-72
2023/03/03 03:14:17;;;;;;;45.17;25.52;;;;;;;0.04;93.63;102353.84;5055185;28;20053;-71
2023/03/03 03:16:45;;;;;;;43.35;26.10;;;;;;;0.09;93.43;102355.78;5061953;28;20052;-71
2023/03/03 03:19:12;;;;;;;42.85;26.00;;;;;;;0.09;93.50;102360.97;5089575;28;20045;-71
2023/03/03 03:21:40;;;;;;;47.88;23.00;;;;;;;0.10;93.43;102361.81;5063646;28;20038;-71
2023/03/03 03:24:08;;;;;;;45.80;27.48;;;;;;;0.12;93.49;102355.88;5060189;28;20064;-70
2023/03/03 03:26:38;;;;;;;44.15;26.73;;;;;;;0.18;93.15;102357.81;5049018;28;20048;-69
2023/03/03 03:29:06;;;;;;;45.58;26.92;;;;;;;0.15;93.33;102356.00;5048133;28;20037;-70
2023/03/03 03:31:33;;;;;;;46.42;27.05;;;;;;;0.17;93.38;102362.94;5046529;28;20100;-71
2023/03/03 03:34:02;;;;;;;48.10;26.38;;;;;;;0.13;93.43;102360.22;5064023;28;20043;-72
2023/03/03 03:36:30;;;;;;;45.75;27.10;;;;;;;0.15;93.70;102362.91;5065227;28;20095;-72
2023/03/03 03:38:57;;;;;;;47.15;27.10;;;;;;;0.15;93.62;102362.91;5054890;28;20037;-72
2023/03/03 03:41:24;;;;;;;45.08;23.98;;;;;;;0.18;93.59;102362.13;5064519;28;20048;-71
2023/03/03 03:43:51;;;;;;;47.92;26.08;;;;;;;0.18;93.53;102357.81;5077030;28;20067;-72
2023/03/03 03:46:19;;;;;;;49.42;28.00;;;;;;;0.25;93.37;102361.50;5065552;28;20041;-72
2023/03/03 03:48:46;;;;;;;52.65;28.83;;;;;;;0.23;93.02;102369.25;5081275;28;20715;-72
2023/03/03 03:51:16;;;;;;;49.50;26.58;;;;;;;0.22;93.29;102366.56;5087520;28;20049;-70
2023/03/03 03:53:44;;;;;;;47.67;26.70;;;;;;;0.24;93.19;102365.81;5083368;28;20067;-71
2023/03/03 03:56:11;;;;;;;51.78;26.23;;;;;;;0.28;92.86;102365.09;5049385;28;20048;-70
2023/03/03 03:58:41;;;;;;;43.22;21.40;;;;;;;0.32;92.43;102360.03;5062208;28;20045;-71
2023/03/03 04:01:10;;;;;;;42.28;23.42;;;;;;;0.24;92.28;102360.63;5065408;28;20868;-71
2023/03/03 04:03:42;;;;;;;40.53;21.77;;;;;;;0.20;92.41;102368.25;5068867;28;20068;-72
2023/03/03 04:06:14;;;;;;;44.55;19.92;;;;;;;0.15;92.35;102383.66;5072873;28;20117;-70
2023/03/03 04:08:41;;;;;;;46.45;24.30;;;;;;;0.19;92.66;102369.06;5071170;28;20041;-70
2023/03/03 04:11:09;;;;;;;43.40;20.05;;;;;;;0.20;92.28;102369.13;5079892;28;20041;-71
2023/03/03 04:13:36;;;;;;;47.63;24.00;;;;;;;0.13;92.42;102372.31;5052078;28;20107;-70
2023/03/03 04:16:06;;;;;;;43.05;19.58;;;;;;;0.18;92.45;102375.09;5082607;28;20513;-71
2023/03/03 04:18:34;;;;;;;30.63;16.05;;;;;;;0.19;92.68;102371.69;5047638;28;20068;-71
2023/03/03 04:21:03;;;;;;;33.75;16.83;;;;;;;0.19;92.75;102377.72;5081845;28;20541;-71
2023/03/03 04:23:31;;;;;;;40.17;20.85;;;;;;;0.14;92.95;102369.78;5064375;28;20044;-71
2023/03/03 04:25:59;;;;;;;45.65;23.08;;;;;;;0.15;93.15;102368.94;5065553;28;20091;-71
2023/03/03 04:28:27;;;;;;;44.42;22.90;;;;;;;0.13;93.45;102373.19;5047842;28;20049;-71
2023/03/03 04:30:54;;;;;;;41.22;20.65;;;;;;;0.17;93.37;102374.19;5068674;28;20037;-70
2023/03/03 04:33:24;;;;;;;44.13;22.10;;;;;;;0.18;93.35;102364.72;5074177;28;20045;-71
2023/03/03 04:35:51;;;;;;;43.65;22.25;;;;;;;0.22;93.49;102366.56;5063197;28;20832;-70
2023/03/03 04:38:18;;;;;;;40.08;21.65;;;;;;;0.23;93.60;102366.66;5070093;28;20124;-70
2023/03/03 04:40:47;;;;;;;41.95;22.67;;;;;;;0.21;93.67;102367.41;5054458;28;20041;-70
2023/03/03 04:43:16;;;;;;;41.53;23.00;;;;;;;0.21;93.88;102363.13;5079323;28;20041;-71
2023/03/03 04:45:43;;;;;;;38.78;21.88;;;;;;;0.28;93.55;102366.81;5055542;28;20076;-72
2023/03/03 04:48:11;;;;;;;39.28;21.38;;;;;;;0.26;93.63;102361.56;5051237;28;20509;-71
2023/03/03 04:50:38;;;;;;;40.10;19.67;;;;;;;0.30;93.65;102366.03;5055859;28;20807;-71
2023/03/03 04:53:05;;;;;;;42.15;22.25;;;;;;;0.30;93.88;102370.38;5044820;28;20525;-71
2023/03/03 04:55:36;;;;;;;38.20;18.77;;;;;;;0.33;93.55;102373.03;5034220;28;20561;-72
2023/03/03 04:58:05;;;;;;;39.20;21.27;;;;;;;0.35;93.53;102376.59;5057464;28;20124;-71
2023/03/03 05:00:32;;;;;;;37.78;19.02;;;;;;;0.39;93.69;102369.78;5062547;28;20052;-72
2023/03/03 05:03:01;;;;;;;36.17;21.02;;;;;;;0.47;93.25;102376.13;5063462;28;20590;-73
2023/03/03 05:05:28;;;;;;;33.30;20.38;;;;;;;0.47;93.08;102378.72;5046148;28;20469;-73
2023/03/03 05:07:55;;;;;;;35.65;17.60;;;;;;;0.47;93.26;102378.72;5062193;28;20033;-71
2023/03/03 05:10:22;;;;;;;35.40;20.23;;;;;;;0.48;93.33;102383.09;5051462;28;20045;-72
2023/03/03 05:12:49;;;;;;;39.42;20.05;;;;;;;0.48;93.18;102392.59;5054264;28;20561;-71
2023/03/03 05:15:16;;;;;;;38.63;19.05;;;;;;;0.50;93.26;102389.22;5047733;28;20073;-71
2023/03/03 05:17:43;;;;;;;38.75;21.25;;;;;;;0.48;93.43;102390.00;5051310;28;20080;-71
2023/03/03 05:20:12;;;;;;;40.28;22.35;;;;;;;0.52;93.46;102389.28;5066300;28;20417;-71
2023/03/03 05:22:39;;;;;;;35.90;19.73;;;;;;;0.55;92.97;102387.69;5051601;28;20541;-71
2023/03/03 05:25:08;;;;;;;37.70;19.13;;;;;;;0.60;93.02;102388.75;5049140;28;20044;-71
2023/03/03 05:27:35;;;;;;;38.58;20.30;;;;;;;0.62;92.67;102386.19;5053214;28;20579;-71
2023/03/03 05:30:03;;;;;;;36.78;21.05;;;;;;;0.60;92.78;102391.34;5057969;28;20513;-71
2023/03/03 05:32:31;;;;;;;38.38;20.85;;;;;;;0.59;92.95;102384.38;5079177;28;20052;-72
2023/03/03 05:34:58;;;;;;;37.65;20.83;;;;;;;0.58;93.05;102382.59;5082035;28;20033;-70
2023/03/03 05:37:25;;;;;;;36.70;19.92;;;;;;;0.59;93.18;102389.56;5061992;28;20590;-72
2023/03/03 05:39:52;;;;;;;39.60;19.98;;;;;;;0.65;92.92;102388.03;5061791;28;20037;-70
2023/03/03 05:42:19;;;;;;;35.13;20.00;;;;;;;0.77;93.97;102384.16;5059479;28;20052;-71
2023/03/03 05:44:46;;;;;;;33.60;19.48;;;;;;;1.04;95.01;102379.84;5054017;28;20044;-70
2023/03/03 05:47:14;;;;;;;36.97;20.13;;;;;;;1.21;94.56;102377.81;5072669;28;20469;-71
2023/03/03 05:49:40;;;;;;;35.50;19.65;;;;;;;1.39;94.21;102383.63;5064034;28;20049;-71
2023/03/03 05:52:08;;;;;;;35.70;19.88;;;;;;;1.50;90.85;102378.75;5078340;28;20095;-69
2023/03/03 05:54:35;;;;;;;33.70;19.52;;;;;;;1.42;90.13;102387.16;5063280;28;20116;-68
2023/03/03 05:57:02;;;;;;;32.20;18.30;;;;;;;1.34;88.88;102386.91;5046506;28;20069;-69
2023/03/03 05:59:29;;;;;;;31.88;19.25;;;;;;;1.21;88.66;102383.88;5061878;28;20037;-69
2023/03/03 06:01:56;;;;;;;33.38;19.35;;;;;;;1.16;88.83;102389.75;5058403;28;22043;-70
2023/03/03 06:04:23;;;;;;;32.83;19.23;;;;;;;1.03;89.19;102396.25;5061287;28;20305;-70
2023/03/03 06:06:50;;;;;;;32.72;19.60;;;;;;;1.01;89.70;102387.53;5066411;28;20045;-69
2023/03/03 06:09:18;;;;;;;36.35;20.23;;;;;;;1.11;89.44;102386.13;5067898;28;20048;-68
2023/03/03 06:11:45;;;;;;;35.47;19.20;;;;;;;1.14;89.28;102394.91;5065596;28;20038;-69
2023/03/03 06:14:12;;;;;;;35.50;20.77;;;;;;;1.15;88.91;102399.28;5064599;28;20041;-69
2023/03/03 06:16:39;;;;;;;34.50;20.02;;;;;;;1.14;89.55;102394.00;5064031;28;20437;-70
2023/03/03 06:19:06;;;;;;;33.15;19.55;;;;;;;1.18;89.14;102401.09;5064219;28;20033;-69
2023/03/03 06:21:33;;;;;;;35.25;20.45;;;;;;;1.20;88.91;102407.22;5095233;27;20037;-69
2023/03/03 06:24:00;;;;;;;35.30;20.55;;;;;;;1.22;88.90;102409.03;5066506;28;20037;-70
2023/03/03 06:26:27;;;;;;;35.28;19.70;;;;;;;1.16;88.63;102416.63;5062310;28;20048;-67
2023/03/03 06:28:54;;;;;;;38.45;21.25;;;;;;;1.10;89.09;102418.13;5063025;28;20037;-68
2023/03/03 06:31:22;;;;;;;40.33;20.85;;;;;;;1.08;89.12;102420.66;5063721;28;20055;-68
2023/03/03 06:33:50;;;;;;;38.47;20.10;;;;;;;1.03;89.38;102419.63;5065203;28;20045;-70
2023/03/03 06:36:18;;;;;;;37.47;19.80;;;;;;;1.05;89.37;102418.84;5060343;28;20056;-70
2023/03/03 06:38:45;;;;;;;34.97;21.30;;;;;;;1.02;89.63;102426.53;5064155;28;20099;-70
2023/03/03 06:41:13;;;;;;;37.97;20.67;;;;;;;0.99;89.80;102423.84;5061117;28;20073;-68
2023/03/03 06:43:40;;;;;;;37.58;20.23;;;;;;;0.98;90.27;102432.47;5060721;28;20135;-69
2023/03/03 06:46:07;;;;;;;37.72;20.55;;;;;;;0.98;90.22;102432.47;5061355;28;20048;-70
2023/03/03 06:48:34;;;;;;;36.20;21.25;;;;;;;1.00;90.56;102430.81;5064638;28;20041;-70
2023/03/03 06:51:21;;;;;;;39.25;20.65;;;;;;;1.05;90.77;102441.38;5061087;28;20029;-70
2023/03/03 06:53:52;;;;;;;39.22;21.55;;;;;;;1.03;90.77;102432.63;5063533;28;21102;-69
2023/03/03 06:56:19;;;;;;;38.63;21.75;;;;;;;1.13;90.58;102441.59;5066143;28;20033;-70
2023/03/03 06:58:48;;;;;;;37.95;22.50;;;;;;;1.20;89.92;102441.00;5062556;28;20882;-69
2023/03/03 07:01:16;;;;;;;38.60;21.55;;;;;;;1.20;89.65;102441.88;5064431;28;20047;-69
2023/03/03 07:03:45;;;;;;;36.75;20.13;;;;;;;1.23;89.55;102454.06;5066529;28;20064;-69
2023/03/03 07:06:23;;;;;;;39.65;21.80;;;;;;;1.23;89.48;102447.19;5062987;28;20045;-69
2023/03/03 07:08:51;;;;;;;37.55;20.50;;;;;;;1.26;89.56;102442.94;5060419;28;20044;-69
2023/03/03 07:11:22;;;;;;;42.38;21.13;;;;;;;1.25;89.51;102457.63;5067596;28;20586;-69
2023/03/03 07:13:54;;;;;;;38.65;20.98;;;;;;;1.23;89.83;102462.78;5059090;28;20049;-69
2023/03/03 07:16:26;;;;;;;40.90;21.38;;;;;;;1.24;89.80;102456.75;5058326;28;20574;-69
2023/03/03 07:19:00;;;;;;;38.00;20.83;;;;;;;1.31;90.07;102456.94;5065612;28;20488;-69
2023/03/03 07:21:35;;;;;;;38.45;20.13;;;;;;;1.32;90.17;102466.50;5085186;28;20041;-69
2023/03/03 07:24:27;;;;;;;37.33;20.58;;;;;;;1.38;89.95;102471.91;5084004;28;20049;-70
2023/03/03 07:27:06;;;;;;;37.58;20.65;;;;;;;1.43;89.45;102467.75;5064346;28;20128;-69
2023/03/03 07:29:34;;;;;;;37.35;20.65;;;;;;;1.44;89.49;102474.72;5097501;28;20960;-70
2023/03/03 07:32:03;;;;;;;35.42;20.75;;;;;;;1.50;89.10;102474.06;5058086;28;20047;-69
2023/03/03 07:34:42;;;;;;;35.08;20.05;;;;;;;1.50;89.16;102479.25;5075140;28;20094;-69
2023/03/03 07:37:21;;;;;;;34.42;20.45;;;;;;;1.52;89.04;102475.88;5080325;28;20048;-69
2023/03/03 07:39:49;;;;;;;35.83;20.50;;;;;;;1.63;88.57;102481.41;5051076;28;20045;-69
2023/03/03 07:42:27;;;;;;;34.80;18.67;;;;;;;1.63;88.24;102484.00;5068337;28;20044;-69
2023/03/03 07:45:31;;;;;;;33.40;19.25;;;;;;;1.70;88.14;102488.59;5081319;28;20037;-69
2023/03/03 07:48:26;;;;;;;33.85;18.95;;;;;;;1.72;87.79;102493.84;5068922;28;20051;-69
2023/03/03 07:50:53;;;;;;;32.92;19.33;;;;;;;1.73;87.89;102495.59;5059274;28;20037;-69
2023/03/03 07:53:33;;;;;;;34.70;18.45;;;;;;;1.75;87.88;102491.34;5068573;28;20048;-69
2023/03/03 07:56:00;;;;;;;30.25;18.30;;;;;;;1.82;87.75;102493.31;5069197;28;20045;-69
2023/03/03 07:58:39;;;;;;;30.70;18.23;;;;;;;1.89;87.33;102486.59;5068827;28;20090;-69
2023/03/03 08:01:43;;;;;;;30.60;17.88;;;;;;;1.88;87.16;102494.34;5067825;28;20095;-69
2023/03/03 08:04:21;;;;;;;31.92;17.35;;;;;;;1.91;87.40;102484.94;5078724;28;20051;-69
2023/03/03 08:06:58;;;;;;;35.53;18.45;;;;;;;1.93;87.57;102490.16;5067149;28;20068;-70
2023/03/03 08:09:51;;;;;;;32.72;17.95;;;;;;;1.98;87.57;102493.81;5081815;28;20040;-69
2023/03/03 08:12:41;;;;;;;34.60;17.70;;;;;;;2.02;87.56;102498.25;5066816;28;20203;-69
2023/03/03 08:15:20;;;;;;;33.33;19.27;;;;;;;2.08;87.42;102500.19;5083256;28;20044;-69
2023/03/03 08:17:49;;;;;;;33.05;17.70;;;;;;;2.12;87.28;102502.06;5066599;28;20044;-69
2023/03/03 08:20:43;;;;;;;34.03;18.60;;;;;;;2.20;87.25;102499.66;5067997;28;20488;-69
2023/03/03 08:23:13;;;;;;;29.70;16.97;;;;;;;2.22;87.12;102504.09;5067165;28;20045;-70
2023/03/03 08:25:41;;;;;;;29.88;17.67;;;;;;;2.31;87.10;102511.28;5086293;28;20040;-69
2023/03/03 08:28:10;;;;;;;31.05;17.00;;;;;;;2.42;86.24;102509.91;5086806;28;20049;-70
2023/03/03 08:30:37;;;;;;;30.90;17.45;;;;;;;2.43;85.93;102509.06;5070622;28;20088;-70
2023/03/03 08:33:04;;;;;;;30.58;17.80;;;;;;;2.45;85.77;102519.53;5048327;28;20033;-69
2023/03/03 08:35:31;;;;;;;33.33;17.73;;;;;;;2.45;86.18;102522.13;5056221;28;20053;-70
2023/03/03 08:37:59;;;;;;;29.60;16.20;;;;;;;2.56;85.64;102518.13;5057801;28;20573;-69
2023/03/03 08:40:26;;;;;;;26.85;17.02;;;;;;;2.60;85.08;102516.50;5098360;28;20041;-69
2023/03/03 08:42:53;;;;;;;26.17;16.73;;;;;;;2.60;84.67;102527.81;5099497;28;20044;-69
2023/03/03 08:45:20;;;;;;;26.52;15.65;;;;;;;2.64;84.61;102523.56;5063202;28;21004;-70
2023/03/03 08:47:47;;;;;;;27.63;16.58;;;;;;;2.64;84.57;102523.56;5080296;28;20520;-68
2023/03/03 08:50:16;;;;;;;26.30;15.70;;;;;;;2.71;84.08;102532.44;5066073;28;20065;-69
2023/03/03 08:52:43;;;;;;;24.73;14.48;;;;;;;2.73;83.72;102529.03;5056013;28;20059;-69
2023/03/03 08:55:11;;;;;;;24.85;14.90;;;;;;;2.74;84.20;102537.75;5072827;28;20571;-69
2023/03/03 08:57:38;;;;;;;26.77;15.23;;;;;;;2.84;84.31;102528.47;5060958;28;20115;-68
2023/03/03 09:00:09;;;;;;;26.13;15.57;;;;;;;2.94;82.91;102534.00;5066777;28;20037;-69
2023/03/03 09:02:36;;;;;;;26.38;15.13;;;;;;;2.93;82.66;102531.34;5067162;28;20587;-68
2023/03/03 09:05:05;;;;;;;28.35;14.80;;;;;;;2.92;82.77;102540.00;5067465;28;20034;-68
2023/03/03 09:07:32;;;;;;;25.08;15.60;;;;;;;3.01;82.73;102531.56;5079544;28;20042;-68
2023/03/03 09:10:00;;;;;;;25.75;15.10;;;;;;;3.11;81.33;102531.00;5057935;28;20538;-68
2023/03/03 09:12:39;;;;;;;25.42;14.93;;;;;;;3.14;81.29;102538.91;5099330;28;20104;-69
2023/03/03 09:15:18;;;;;;;27.40;14.60;;;;;;;3.21;81.47;102533.00;5067095;28;20652;-68
2023/03/03 09:17:46;;;;;;;25.35;15.60;;;;;;;3.25;81.22;102536.56;5071339;28;20068;-69
2023/03/03 09:20:24;;;;;;;23.73;14.35;;;;;;;3.35;79.76;102543.81;5066782;28;20049;-68
2023/03/03 09:22:51;;;;;;;21.17;13.30;;;;;;;3.34;79.51;102549.84;5078571;28;20801;-68
2023/03/03 09:25:33;;;;;;;24.67;13.20;;;;;;;3.30;79.85;102547.13;5047168;28;20042;-68
2023/03/03 09:28:02;;;;;;;23.58;13.15;;;;;;;3.26;80.32;102548.78;5062351;28;20050;-68
2023/03/03 09:30:43;;;;;;;22.63;12.55;;;;;;;3.32;79.66;102553.28;5057005;28;20095;-68
2023/03/03 09:33:45;;;;;;;23.52;13.23;;;;;;;3.35;79.74;102542.94;5067043;28;20025;-68
2023/03/03 09:36:21;;;;;;;23.60;12.77;;;;;;;3.42;78.77;102550.94;5076646;28;20880;-68
2023/03/03 09:38:49;;;;;;;21.83;12.25;;;;;;;3.49;78.85;102545.91;5065708;28;20041;-68
2023/03/03 09:41:49;;;;;;;19.25;11.73;;;;;;;3.64;78.29;102551.50;5067343;28;20115;-68
2023/03/03 09:44:29;;;;;;;18.38;11.18;;;;;;;3.78;77.32;102541.41;5067192;28;20041;-69
2023/03/03 09:47:37;;;;;;;18.52;12.10;;;;;;;3.86;76.44;102549.44;5081710;28;20555;-70
2023/03/03 09:50:30;;;;;;;19.42;11.75;;;;;;;3.92;76.23;102554.81;5065690;28;20033;-68
2023/03/03 09:53:31;;;;;;;20.55;11.85;;;;;;;4.00;77.16;102553.28;5066654;28;20052;-69
2023/03/03 09:56:38;;;;;;;21.83;11.75;;;;;;;4.15;76.45;102551.88;5048865;28;20572;-68
2023/03/03 09:59:17;;;;;;;18.60;11.45;;;;;;;4.34;75.72;102564.53;5065319;28;20071;-68
2023/03/03 10:02:15;;;;;;;20.85;11.52;;;;;;;4.42;75.58;102559.47;5065850;28;20049;-68
2023/03/03 10:05:25;;;;;;;19.58;11.55;;;;;;;4.57;75.00;102558.94;5067570;28;20160;-69
2023/03/03 10:08:22;;;;;;;21.33;12.18;;;;;;;4.73;74.00;102561.91;5080713;28;20088;-69
2023/03/03 10:11:25;;;;;;;20.00;11.82;;;;;;;4.74;73.67;102561.03;5065330;28;20068;-68
2023/03/03 10:14:10;;;;;;;22.60;12.02;;;;;;;4.82;73.75;102560.34;5065068;28;20044;-68
2023/03/03 10:16:56;;;;;;;20.27;12.73;;;;;;;4.92;72.61;102560.53;5065506;28;20043;-71
2023/03/03 10:19:53;;;;;;;19.75;12.27;;;;;;;4.87;72.42;102567.44;5077433;28;20037;-68
2023/03/03 10:22:31;;;;;;;21.70;12.68;;;;;;;4.80;73.50;102562.06;5066328;28;20467;-68
2023/03/03 10:25:17;;;;;;;19.35;12.45;;;;;;;4.95;73.29;102560.63;5048585;28;20037;-68
2023/03/03 10:28:05;;;;;;;22.40;12.15;;;;;;;5.02;72.67;102556.41;5061628;28;20501;-68
2023/03/03 10:31:26;;;;;;;20.95;12.40;;;;;;;5.07;72.33;102565.22;5056767;28;20037;-70
2023/03/03 10:34:22;;;;;;;22.77;13.00;;;;;;;5.02;73.24;102557.28;5040737;28;20096;-69
2023/03/03 10:37:20;;;;;;;19.73;12.73;;;;;;;5.11;73.22;102553.97;5054722;28;20041;-69
2023/03/03 10:40:27;;;;;;;22.58;12.82;;;;;;;5.15;73.22;102563.63;5062293;28;20041;-68
2023/03/03 10:43:22;;;;;;;39.28;13.32;;;;;;;5.31;72.41;102554.34;5088407;28;20051;-70
2023/03/03 10:46:13;;;;;;;43.92;13.82;;;;;;;5.29;71.70;102563.91;5051533;28;20064;-68
2023/03/03 10:49:17;;;;;;;19.50;12.25;;;;;;;5.26;72.10;102562.09;5064513;28;20044;-68
2023/03/03 10:52:42;;;;;;;18.50;12.73;;;;;;;5.15;71.66;102561.00;5068147;28;20127;-68
2023/03/03 10:55:54;;;;;;;21.88;12.38;;;;;;;5.09;72.77;102563.50;5005253;28;20545;-69
2023/03/03 10:58:44;;;;;;;23.50;13.43;;;;;;;5.15;71.99;102561.00;4983522;28;20054;-68
2023/03/03 11:01:25;;;;;;;23.15;12.93;;;;;;;5.07;72.51;102558.25;5077341;28;20134;-70
2023/03/03 11:04:46;;;;;;;20.88;13.30;;;;;;;5.13;72.52;102555.75;5060363;28;21123;-68
2023/03/03 11:07:27;;;;;;;25.65;12.40;;;;;;;5.23;72.74;102561.16;5040722;28;20054;-68
2023/03/03 11:10:20;;;;;;;21.17;12.13;;;;;;;5.34;72.21;102561.38;5065092;28;20038;-69
2023/03/03 11:13:20;;;;;;;21.13;11.75;;;;;;;5.32;72.35;102552.63;5049527;28;20103;-68
2023/03/03 11:15:50;;;;;;;22.40;11.85;;;;;;;5.39;71.41;102560.59;5066840;28;20044;-68
2023/03/03 11:19:11;;;;;;;21.88;12.75;;;;;;;5.38;71.74;102560.56;5077572;28;20033;-68
2023/03/03 11:21:54;;;;;;;20.75;12.52;;;;;;;5.41;72.72;102552.78;5069291;28;20056;-68
2023/03/03 11:24:45;;;;;;;20.95;12.55;;;;;;;5.62;71.16;102554.03;5077990;28;20489;-69
2023/03/03 11:27:54;;;;;;;21.88;12.70;;;;;;;5.59;71.48;102547.03;5060149;28;20041;-69
2023/03/03 11:30:58;;;;;;;20.80;12.52;;;;;;;5.68;71.42;102544.56;5055007;28;20056;-68
2023/03/03 11:33:43;;;;;;;21.85;12.13;;;;;;;5.84;71.00;102550.03;5046878;28;20107;-69
2023/03/03 11:36:22;;;;;;;29.33;13.00;;;;;;;5.82;70.60;102536.03;5048433;28;20045;-69
2023/03/03 11:39:03;;;;;;;18.90;11.98;;;;;;;5.66;70.10;102532.28;5069944;28;20149;-69
2023/03/03 11:41:38;;;;;;;21.33;12.38;;;;;;;5.43;70.16;102541.50;5050299;28;20040;-68
2023/03/03 11:44:28;;;;;;;22.40;12.27;;;;;;;5.33;70.91;102534.34;5066925;28;20514;-68
2023/03/03 11:47:04;;;;;;;22.63;12.63;;;;;;;5.60;71.46;102533.06;5084432;28;20160;-68
2023/03/03 11:49:42;;;;;;;21.33;13.02;;;;;;;5.93;71.06;102533.63;5100477;28;20152;-69
2023/03/03 11:52:33;;;;;;;22.38;12.32;;;;;;;6.05;70.15;102526.88;5080187;28;20045;-69
2023/03/03 11:55:19;;;;;;;18.90;12.60;;;;;;;6.11;69.82;102535.66;5070042;28;20055;-69